This is the latest recevied weather packets stored in our database for station/object W5CRT. If no packets are shown the sender has not sent any weather packets the latest 10 day(s).
| Time | Temp. | Humidity | Pressure | Rain* | Wind** | Luminosity | Snow |
|---|---|---|---|---|---|---|---|
| 1777485760 | 16.67° C | 82% | 1013.6 hPa | 0 mm | - | 86 W/m² | - |
| 1777485455 | 16.67° C | 83% | 1013.7 hPa | 0 mm | - | 90 W/m² | - |
| 1777485152 | 16.67° C | 82% | 1013.5 hPa | 0 mm | - | 82 W/m² | - |
| 1777484848 | 16.67° C | 81% | 1013.1 hPa | 0 mm | - | 187 W/m² | - |
| 1777484545 | 17.22° C | 82% | 1012.7 hPa | 0 mm | - | 162 W/m² | - |
| 1777484242 | 17.22° C | 82% | 1012.2 hPa | 0 mm | - | 325 W/m² | - |
| 1777483938 | 16.67° C | 83% | 1012.3 hPa | 0 mm | - | 523 W/m² | - |
| 1777483635 | 16.67° C | 84% | 1013.3 hPa | 0 mm | - | 146 W/m² | - |
| 1777483330 | 16.67° C | 82% | 1014 hPa | 0 mm | - | 119 W/m² | - |
| 1777483026 | 16.67° C | 83% | 1014.2 hPa | 0 mm | - | 111 W/m² | - |
| 1777482723 | 16.67° C | 84% | 1014.2 hPa | 0 mm | - | 110 W/m² | - |
| 1777482419 | 16.67° C | 83% | 1014.1 hPa | 0 mm | - | 78 W/m² | - |
| 1777482116 | 16.67° C | 82% | 1013.8 hPa | 0 mm | - | 111 W/m² | - |
| 1777481814 | 16.67° C | 82% | 1013.6 hPa | 0 mm | - | 120 W/m² | - |
| 1777481511 | 17.22° C | 83% | 1013.6 hPa | 0 mm | - | 221 W/m² | - |
| 1777481207 | 17.22° C | 83% | 1013.8 hPa | 0 mm | - | 419 W/m² | - |
| 1777480904 | 16.67° C | 82% | 1013.8 hPa | 0 mm | - | 421 W/m² | - |
| 1777480601 | 16.67° C | 84% | 1013.5 hPa | 0 mm | - | 395 W/m² | - |
| 1777480298 | 16.67° C | 85% | 1013.5 hPa | 0 mm | - | 394 W/m² | - |
| 1777479993 | 16.11° C | 85% | 1013.8 hPa | 0 mm | - | 386 W/m² | - |
| 1777479691 | 16.11° C | 85% | 1013.5 hPa | 0 mm | - | 424 W/m² | - |
| 1777479389 | 16.11° C | 85% | 1014.1 hPa | 0 mm | - | 232 W/m² | - |
| 1777479084 | 15.56° C | 87% | 1013.9 hPa | 0 mm | - | 315 W/m² | - |
| 1777478781 | 15.56° C | 89% | 1013.3 hPa | 0 mm | - | 664 W/m² | - |
| 1777478478 | 15° C | 88% | 1013.9 hPa | 1.78 mm | - | 65 W/m² | - |
* Rain latest hour (hover to see other rain measurements)
** Current wind speed in m/s (hover to see current wind gust speed)